Time;durP1;ratioP1;P1;durP2;ratioP2;P2;SDS_P1;SDS_P2;PMS_P1;PMS_P2;Temp;Humidity;BMP_temperature;BMP_pressure;BME280_temperature;BME280_humidity;BME280_pressure;Samples;Min_cycle;Max_cycle;Signal;HPM_P1;HPM_P2
2021/05/30 07:09:35;;;;;;;;;14.50;13.00;;;;;19.86;46.66;102271.28;5054528;27;45328;-80
2021/05/30 07:12:01;;;;;;;;;14.25;12.75;;;;;21.32;44.58;102262.19;5020871;28;45529;-80
2021/05/30 07:14:27;;;;;;;;;14.50;13.50;;;;;22.93;38.88;102260.19;5044990;28;45548;-81
2021/05/30 07:16:53;;;;;;;;;15.00;13.50;;;;;24.20;37.24;102256.63;5039357;28;55561;-87
2021/05/30 07:19:18;;;;;;;;;14.75;12.00;;;;;23.76;39.89;102259.50;5031869;28;46992;-74
2021/05/30 07:21:44;;;;;;;;;15.50;14.00;;;;;22.87;38.60;102273.94;5048459;28;50836;-96
2021/05/30 07:24:09;;;;;;;;;13.00;11.25;;;;;21.61;40.37;102279.41;5025395;28;45570;-89
2021/05/30 07:26:37;;;;;;;;;14.75;11.75;;;;;20.50;41.92;102280.69;5043142;28;59997;-87
2021/05/30 07:29:03;;;;;;;;;12.25;12.00;;;;;19.62;43.28;102274.19;5042967;28;45417;-92
2021/05/30 07:31:28;;;;;;;;;15.50;15.50;;;;;19.04;44.68;102274.13;5017083;28;45476;-92
2021/05/30 07:33:54;;;;;;;;;15.25;15.25;;;;;18.60;45.43;102271.53;5027246;28;46335;-90
2021/05/30 07:36:19;;;;;;;;;13.50;13.50;;;;;18.30;46.43;102279.88;5027893;28;46886;-88
2021/05/30 07:38:44;;;;;;;;;14.00;12.50;;;;;18.08;47.11;102275.41;5049124;28;57831;-92
2021/05/30 07:41:10;;;;;;;;;21.25;14.75;;;;;17.91;47.50;102276.97;5052967;28;55894;-90
2021/05/30 07:43:35;;;;;;;;;15.50;12.50;;;;;17.75;48.06;102274.88;5044833;28;45813;-90
2021/05/30 07:46:01;;;;;;;;;13.00;12.00;;;;;17.67;47.96;102271.69;5044859;28;45409;-96
2021/05/30 07:48:44;;;;;;;;;14.25;14.25;;;;;17.53;48.95;102267.75;5178012;22;47108;-96
2021/05/30 07:51:10;;;;;;;;;15.50;13.25;;;;;17.47;49.10;102269.78;5084620;27;48647;-96
2021/05/30 07:53:35;;;;;;;;;15.00;12.75;;;;;17.41;49.19;102262.91;5060990;28;44757;-95
2021/05/30 07:56:01;;;;;;;;;13.75;13.50;;;;;17.38;49.20;102263.03;5142731;22;45806;-96
2021/05/30 07:58:26;;;;;;;;;21.00;14.50;;;;;17.37;49.50;102256.84;5046117;28;47041;-95
2021/05/30 08:00:52;;;;;;;;;18.75;15.25;;;;;17.36;49.71;102262.22;5042823;28;46596;-96
2021/05/30 08:03:17;;;;;;;;;13.25;12.75;;;;;17.36;50.02;102254.25;5074711;27;44867;-96
2021/05/30 08:05:46;;;;;;;;;15.75;13.50;;;;;17.36;49.66;102257.75;5056372;27;45852;-96
2021/05/30 08:08:11;;;;;;;;;13.75;13.00;;;;;17.36;49.68;102254.25;5022121;28;47470;-89
2021/05/30 08:10:36;;;;;;;;;12.25;12.25;;;;;17.37;49.58;102262.16;5053000;27;45262;-94
2021/05/30 08:13:02;;;;;;;;;16.00;14.50;;;;;17.39;50.33;102256.78;5082875;27;50718;-94
2021/05/30 08:15:27;;;;;;;;;17.25;13.00;;;;;17.42;49.98;102256.66;5077054;27;50055;-91
2021/05/30 08:17:53;;;;;;;;;19.50;14.00;;;;;17.43;49.73;102261.06;5040806;28;46563;-91
2021/05/30 08:20:20;;;;;;;;;15.00;12.75;;;;;17.38;49.76;102261.25;5030275;28;45325;-87
2021/05/30 08:22:45;;;;;;;;;12.00;12.00;;;;;17.37;50.50;102262.16;5060010;28;45289;-89
2021/05/30 08:25:11;;;;;;;;;19.50;16.75;;;;;17.40;49.89;102263.84;5058239;28;45378;-88
2021/05/30 08:27:37;;;;;;;;;14.25;12.75;;;;;17.39;49.57;102256.78;5055196;28;46510;-88
2021/05/30 08:30:04;;;;;;;;;13.75;12.75;;;;;17.40;50.70;102248.78;5021245;28;45444;-73
2021/05/30 08:32:30;;;;;;;;;14.50;13.75;;;;;17.62;50.65;102247.06;5061844;28;45305;-72
2021/05/30 08:34:55;;;;;;;;;11.50;10.50;;;;;17.96;51.01;102236.88;5061456;28;45453;-70
2021/05/30 08:37:21;;;;;;;;;12.50;10.50;;;;;18.30;50.16;102243.50;5058273;28;58163;-71
2021/05/30 08:39:46;;;;;;;;;10.25;8.75;;;;;18.60;49.58;102233.38;5054976;28;45503;-73
2021/05/30 08:42:12;;;;;;;;;11.75;10.50;;;;;18.86;49.45;102232.25;5061695;28;45383;-72
2021/05/30 08:44:37;;;;;;;;;11.25;9.75;;;;;19.11;49.21;102230.28;5060891;28;45728;-72
2021/05/30 08:47:03;;;;;;;;;10.50;10.00;;;;;19.31;48.89;102223.19;5060337;28;65752;-72
2021/05/30 08:49:28;;;;;;;;;11.75;9.50;;;;;19.50;48.11;102225.84;5058987;28;45658;-72
2021/05/30 08:51:54;;;;;;;;;12.00;9.50;;;;;19.68;47.81;102221.44;5055491;28;49214;-76
2021/05/30 08:54:19;;;;;;;;;10.00;8.50;;;;;19.84;47.70;102219.81;5061245;28;58887;-76
2021/05/30 08:56:47;;;;;;;;;10.00;8.50;;;;;19.97;47.52;102220.97;5061505;28;46447;-76
2021/05/30 08:59:28;;;;;;;;;8.25;8.25;;;;;20.11;47.25;102211.41;5061737;28;45319;-76
2021/05/30 09:01:55;;;;;;;;;9.50;9.50;;;;;20.23;47.01;102215.25;5060850;28;45686;-76
2021/05/30 09:04:32;;;;;;;;;10.00;9.00;;;;;20.34;46.97;102212.06;5059575;28;45459;-76
2021/05/30 09:06:57;;;;;;;;;8.75;8.75;;;;;20.44;47.13;102209.78;5058913;28;46028;-76
2021/05/30 09:09:23;;;;;;;;;9.25;9.25;;;;;20.53;46.37;102211.09;5059342;28;45409;-77
2021/05/30 09:11:50;;;;;;;;;7.25;7.00;;;;;20.62;46.55;102210.59;5058926;28;45754;-76
2021/05/30 09:14:22;;;;;;;;;9.00;8.75;;;;;20.68;46.38;102204.94;5040611;28;45603;-77
2021/05/30 09:17:04;;;;;;;;;9.75;8.50;;;;;20.76;46.42;102217.03;5026689;28;45408;-77
2021/05/30 09:19:32;;;;;;;;;9.00;8.25;;;;;20.85;46.24;102211.19;5043097;28;45447;-78
2021/05/30 09:22:31;;;;;;;;;8.00;8.00;;;;;20.92;46.07;102215.25;5061498;28;45251;-78
2021/05/30 09:25:05;;;;;;;;;7.75;7.75;;;;;20.98;45.73;102211.41;5031226;28;45246;-81
2021/05/30 09:27:31;;;;;;;;;7.75;7.75;;;;;21.02;45.79;102207.63;5039904;28;47168;-83
2021/05/30 09:30:23;;;;;;;;;7.00;7.00;;;;;21.07;45.62;102202.03;5023452;28;45563;-82
2021/05/30 09:33:09;;;;;;;;;8.50;8.50;;;;;21.13;45.40;102208.88;5026514;28;45492;-78
2021/05/30 09:35:45;;;;;;;;;6.50;6.50;;;;;21.16;45.60;102211.38;5041889;28;45586;-73
2021/05/30 09:38:16;;;;;;;;;7.00;7.00;;;;;21.20;45.45;102212.94;5025106;28;48211;-77
2021/05/30 09:40:48;;;;;;;;;7.75;7.75;;;;;21.23;45.43;102210.09;5043446;28;45559;-77
2021/05/30 09:43:18;;;;;;;;;6.50;6.25;;;;;21.27;45.09;102208.09;5043873;28;45345;-77
2021/05/30 09:46:07;;;;;;;;;12.75;12.00;;;;;21.28;40.30;102203.63;5040762;28;45615;-85
2021/05/30 09:48:33;;;;;;;;;12.50;10.25;;;;;21.04;41.93;102199.53;5041690;28;48055;-84
2021/05/30 09:51:04;;;;;;;;;6.50;6.50;;;;;20.89;41.15;102199.38;5025075;28;45899;-84
2021/05/30 09:53:32;;;;;;;;;12.50;10.25;;;;;20.73;39.83;102201.16;5054228;28;45332;-84
2021/05/30 09:55:58;;;;;;;;;13.75;11.25;;;;;20.61;40.67;102195.53;5025013;28;47574;-84
2021/05/30 09:58:24;;;;;;;;;13.25;12.50;;;;;20.53;41.23;102197.75;5024880;28;47635;-85
2021/05/30 10:00:55;;;;;;;;;13.25;13.25;;;;;20.44;41.50;102188.41;5041684;28;45593;-85
2021/05/30 10:03:21;;;;;;;;;13.50;11.25;;;;;20.36;41.21;102170.13;5058945;28;45271;-85
2021/05/30 10:05:47;;;;;;;;;7.00;7.00;;;;;20.33;41.45;102187.16;5034756;28;46179;-84
2021/05/30 10:08:13;;;;;;;;;12.25;11.50;;;;;20.27;41.59;102171.47;5035711;28;56358;-84
2021/05/30 10:10:39;;;;;;;;;11.00;11.00;;;;;20.22;41.62;102166.34;5052291;28;45485;-84
2021/05/30 10:13:04;;;;;;;;;12.00;12.00;;;;;20.26;41.76;102176.88;5049713;28;45474;-85
2021/05/30 10:15:30;;;;;;;;;12.75;10.50;;;;;20.26;42.19;102166.19;5046557;28;49959;-85
2021/05/30 10:17:57;;;;;;;;;12.25;10.50;;;;;20.33;41.12;102172.94;5057929;28;45349;-84
2021/05/30 10:20:23;;;;;;;;;12.00;10.25;;;;;20.31;42.29;102165.03;5036680;28;45852;-85
2021/05/30 10:22:52;;;;;;;;;13.25;12.25;;;;;20.34;41.45;102164.00;5048210;28;45234;-85
2021/05/30 10:25:43;;;;;;;;;13.50;10.00;;;;;20.40;41.56;102166.34;5046023;28;45489;-84
2021/05/30 10:28:16;;;;;;;;;11.25;11.25;;;;;20.46;41.75;102166.03;5054580;28;46328;-84
2021/05/30 10:30:51;;;;;;;;;9.25;9.25;;;;;20.46;39.69;102165.16;5029440;28;45584;-84
2021/05/30 10:33:24;;;;;;;;;12.00;10.50;;;;;20.53;40.31;102173.69;5022407;28;45596;-93
2021/05/30 10:35:51;;;;;;;;;6.25;6.25;;;;;20.53;44.51;102171.91;5057137;28;45530;-72
2021/05/30 10:38:35;;;;;;;;;7.50;6.75;;;;;20.68;45.25;102166.69;5054402;28;45462;-73
2021/05/30 10:41:20;;;;;;;;;6.50;6.25;;;;;20.89;46.25;102174.50;5056548;28;45473;-76
2021/05/30 10:43:46;;;;;;;;;7.75;6.75;;;;;21.00;45.94;102176.56;5044621;28;45388;-77
2021/05/30 10:46:11;;;;;;;;;9.00;8.25;;;;;21.08;45.78;102168.16;5059492;28;45316;-76
2021/05/30 10:48:38;;;;;;;;;7.75;7.75;;;;;21.16;45.82;102157.91;5058486;28;45790;-76
2021/05/30 10:53:46;;;;;;;;;8.00;8.00;;;;;21.28;46.07;102158.16;5039087;28;45782;-79
2021/05/30 10:56:31;;;;;;;;;9.75;8.25;;;;;21.32;45.83;102155.22;5037780;28;45472;-77
2021/05/30 13:53:43;;;;;;;;;6.00;6.00;;;;;19.15;47.48;102020.47;5094301;27;45296;-84
2021/05/30 13:56:09;;;;;;;;;9.50;9.50;;;;;19.29;46.92;102015.34;5075678;28;45512;-76
2021/05/30 13:58:34;;;;;;;;;6.25;6.25;;;;;19.48;47.31;102016.25;5075876;28;45170;-76
2021/05/30 14:01:00;;;;;;;;;8.00;8.00;;;;;19.68;47.20;102007.19;5074971;27;45524;-77
2021/05/30 14:03:25;;;;;;;;;8.00;8.00;;;;;19.88;46.87;102010.63;5073239;27;48454;-82
2021/05/30 14:05:51;;;;;;;;;8.50;8.50;;;;;20.07;46.34;102007.00;5058269;28;50867;-83
2021/05/30 14:08:16;;;;;;;;;7.25;7.25;;;;;20.24;45.58;102012.34;5075018;28;55132;-77
2021/05/30 14:10:41;;;;;;;;;6.50;6.00;;;;;20.41;45.31;102010.53;5072474;28;63336;-78
2021/05/30 14:13:07;;;;;;;;;9.00;7.00;;;;;20.58;45.42;102006.06;5074730;28;60342;-78
2021/05/30 14:15:32;;;;;;;;;8.25;6.50;;;;;20.73;44.91;101995.47;5040783;28;52101;-78
2021/05/30 14:17:58;;;;;;;;;7.00;7.00;;;;;20.88;44.60;102007.09;5076724;28;45288;-78
2021/05/30 14:20:23;;;;;;;;;8.50;8.50;;;;;21.00;44.15;102006.44;5074718;28;60267;-77
2021/05/30 14:22:48;;;;;;;;;7.75;7.75;;;;;21.11;43.98;101997.78;5075653;28;45343;-78
2021/05/30 14:25:14;;;;;;;;;5.75;5.75;;;;;21.23;43.21;102003.38;5075954;28;45273;-78
2021/05/30 14:27:39;;;;;;;;;6.75;6.75;;;;;21.32;43.27;102005.50;5076124;28;45309;-78
2021/05/30 14:30:06;;;;;;;;;5.50;4.25;;;;;21.43;43.55;101998.66;5075053;27;45291;-82
2021/05/30 14:32:32;;;;;;;;;8.00;7.25;;;;;21.51;43.05;101985.66;5057985;28;47638;-82
2021/05/30 14:34:57;;;;;;;;;10.25;8.25;;;;;21.61;42.90;101987.81;5075125;28;45278;-77
2021/05/30 14:37:22;;;;;;;;;9.25;8.00;;;;;21.68;42.80;101998.03;5075004;28;45242;-81
2021/05/30 14:39:49;;;;;;;;;6.75;6.75;;;;;21.75;42.33;101995.84;5077586;27;56105;-77
2021/05/30 14:42:14;;;;;;;;;7.75;6.75;;;;;21.83;41.98;101991.84;5073693;28;45799;-78
2021/05/30 14:44:40;;;;;;;;;9.25;7.00;;;;;21.88;41.93;101995.97;5074917;28;45515;-78
2021/05/30 14:47:05;;;;;;;;;9.25;9.25;;;;;21.94;41.79;101989.38;5076083;28;45156;-78
2021/05/30 14:49:31;;;;;;;;;7.00;7.00;;;;;21.99;41.64;101981.06;5075761;28;51986;-78
2021/05/30 14:51:56;;;;;;;;;8.00;6.75;;;;;22.04;41.40;101989.69;5081052;27;46073;-78
2021/05/30 14:54:21;;;;;;;;;7.00;7.00;;;;;22.10;41.57;101983.09;5094902;27;56491;-78
2021/05/30 14:56:47;;;;;;;;;7.00;6.25;;;;;22.14;41.29;101984.59;5095570;27;45928;-78
2021/05/30 14:59:12;;;;;;;;;7.25;6.50;;;;;22.17;41.71;101979.06;5092882;27;45498;-78
2021/05/30 15:01:38;;;;;;;;;7.75;6.75;;;;;22.23;41.33;101972.44;5092767;27;46000;-78
2021/05/30 15:04:04;;;;;;;;;8.75;8.00;;;;;22.26;40.70;101972.25;5081866;27;45333;-78
2021/05/30 15:06:29;;;;;;;;;6.00;6.00;;;;;22.30;40.84;101967.59;5081338;28;45270;-78
2021/05/30 15:08:54;;;;;;;;;9.00;9.00;;;;;22.32;40.54;101962.97;5063281;28;45378;-79
2021/05/30 15:11:20;;;;;;;;;6.00;6.00;;;;;22.32;40.64;101952.28;5062971;28;46359;-79
2021/05/30 15:13:45;;;;;;;;;7.50;7.50;;;;;22.37;40.16;101959.03;5047235;28;53267;-79
2021/05/30 15:16:11;;;;;;;;;8.75;8.00;;;;;22.39;40.10;101956.28;5082672;28;45278;-79
2021/05/30 15:18:37;;;;;;;;;7.75;7.00;;;;;22.42;39.81;101950.69;5082200;28;45281;-80
2021/05/30 15:21:04;;;;;;;;;7.25;6.75;;;;;22.44;39.45;101959.50;5063685;28;47300;-80
2021/05/30 15:23:29;;;;;;;;;9.25;8.25;;;;;22.45;39.37;101953.19;5063215;28;45544;-79
2021/05/30 15:25:55;;;;;;;;;8.00;6.00;;;;;22.49;39.40;101954.69;5064035;28;45290;-78
2021/05/30 15:28:20;;;;;;;;;7.25;6.00;;;;;22.52;39.66;101940.25;5062040;28;45301;-79
2021/05/30 15:30:49;;;;;;;;;7.75;7.75;;;;;22.54;39.66;101940.16;5061403;28;45906;-78
2021/05/30 15:33:17;;;;;;;;;6.00;6.00;;;;;22.54;39.47;101942.84;5082055;27;45727;-78
2021/05/30 15:35:42;;;;;;;;;8.00;8.00;;;;;22.54;39.13;101938.34;5080702;28;45342;-78
2021/05/30 15:38:07;;;;;;;;;8.25;8.25;;;;;22.56;38.85;101943.59;5061767;28;46112;-79
2021/05/30 15:40:34;;;;;;;;;7.25;7.25;;;;;22.57;39.23;101937.28;5083279;27;46250;-79
2021/05/30 15:42:59;;;;;;;;;7.00;7.00;;;;;22.60;38.63;101937.06;5076692;28;45315;-79
2021/05/30 15:45:25;;;;;;;;;6.25;6.25;;;;;22.63;38.69;101931.50;5047215;28;45299;-78
2021/05/30 15:47:50;;;;;;;;;7.75;7.75;;;;;22.67;39.11;101927.66;5041727;28;46244;-78
2021/05/30 15:50:16;;;;;;;;;7.50;7.50;;;;;22.70;38.68;101919.47;5071768;28;46169;-79
2021/05/30 15:52:41;;;;;;;;;7.75;7.75;;;;;22.74;38.74;101913.91;5044748;28;50391;-78
2021/05/30 15:55:07;;;;;;;;;7.75;7.75;;;;;22.76;38.29;101910.16;5038531;28;49440;-77
2021/05/30 15:57:33;;;;;;;;;7.00;7.00;;;;;22.77;37.88;101916.34;5063374;28;45294;-77
2021/05/30 15:59:58;;;;;;;;;8.00;6.75;;;;;22.78;38.22;101916.28;5053076;28;47070;-76
2021/05/30 16:02:23;;;;;;;;;6.25;6.25;;;;;22.79;37.96;101914.47;5043292;28;45458;-82
2021/05/30 16:04:49;;;;;;;;;8.25;8.25;;;;;22.80;38.34;101913.47;5061716;28;54411;-81
2021/05/30 16:07:14;;;;;;;;;8.50;8.50;;;;;22.82;37.89;101904.38;5050058;28;45491;-80
2021/05/30 16:09:40;;;;;;;;;7.25;7.25;;;;;22.85;38.19;101900.63;5062662;28;63756;-81
2021/05/30 16:12:06;;;;;;;;;6.75;6.75;;;;;22.89;38.16;101898.63;5041693;28;45349;-81
2021/05/30 16:14:32;;;;;;;;;6.00;6.00;;;;;22.91;37.83;101902.91;5063234;28;45318;-81
2021/05/30 16:16:57;;;;;;;;;7.00;7.00;;;;;22.93;38.16;101900.97;5045223;28;45310;-78
2021/05/30 16:19:23;;;;;;;;;9.00;8.75;;;;;22.94;37.93;101907.19;5054437;28;46139;-77
2021/05/30 16:21:48;;;;;;;;;7.75;6.75;;;;;22.93;37.94;101910.84;5028931;28;63654;-78
2021/05/30 16:24:13;;;;;;;;;8.50;7.50;;;;;22.91;37.55;101908.28;5075282;28;59501;-77
2021/05/30 16:35:11;;;;;;;;;7.00;7.00;;;;;23.16;37.09;101903.06;5082872;27;45411;-76
2021/05/30 16:37:37;;;;;;;;;8.00;6.50;;;;;23.16;36.59;101901.22;5070570;28;45242;-77
2021/05/30 16:40:04;;;;;;;;;6.00;6.00;;;;;23.19;36.69;101904.69;5075706;28;45437;-77
2021/05/30 16:42:29;;;;;;;;;6.00;6.00;;;;;23.18;36.99;101897.59;5073867;27;45857;-76
2021/05/30 16:44:54;;;;;;;;;7.00;6.50;;;;;23.18;36.70;101892.22;5081899;27;48252;-76
2021/05/30 16:47:20;;;;;;;;;8.75;6.00;;;;;23.17;36.53;101899.41;5064011;28;53422;-77
2021/05/30 16:49:46;;;;;;;;;6.25;6.00;;;;;23.18;36.88;101892.22;5068457;28;46135;-75
2021/05/30 21:05:56;;;;;;;;;3.25;3.25;;;;;20.84;47.71;101896.00;5154165;27;45349;-77
2021/05/30 21:08:22;;;;;;;;;3.50;3.25;;;;;20.96;47.68;101892.63;5119301;27;45249;-76
2021/05/30 21:10:49;;;;;;;;;3.00;3.00;;;;;21.08;47.59;101895.53;5127475;27;45179;-77
2021/05/30 21:13:14;;;;;;;;;4.00;3.75;;;;;21.22;47.12;101892.03;5127753;27;45185;-79
2021/05/30 21:15:44;;;;;;;;;6.50;4.00;;;;;21.36;46.71;101889.38;5126839;27;45214;-80
2021/05/30 21:18:09;;;;;;;;;4.75;3.25;;;;;21.50;46.75;101894.84;5126427;27;45470;-88
2021/05/30 21:20:35;;;;;;;;;5.00;5.00;;;;;21.65;46.27;101899.25;5127807;27;45387;-78
2021/05/30 21:23:01;;;;;;;;;4.75;3.50;;;;;21.77;46.35;101894.94;5127469;27;45442;-76
2021/05/30 21:25:26;;;;;;;;;3.00;3.00;;;;;21.89;45.95;101885.31;5116886;27;45447;-75
2021/05/30 21:27:51;;;;;;;;;3.50;3.50;;;;;22.01;46.01;101890.81;5110147;27;45399;-75
2021/05/30 21:30:17;;;;;;;;;3.50;3.50;;;;;22.10;45.80;101884.03;5116109;27;45640;-78
2021/05/30 21:32:43;;;;;;;;;3.00;3.00;;;;;22.20;45.51;101890.50;5109834;27;46278;-78
2021/05/30 21:35:09;;;;;;;;;3.00;3.00;;;;;22.28;45.31;101892.69;5116142;27;45552;-79
2021/05/30 21:37:34;;;;;;;;;5.50;4.00;;;;;22.35;45.35;101894.00;5108606;27;45579;-78
2021/05/30 21:39:59;;;;;;;;;3.50;3.50;;;;;22.41;45.04;101895.44;5116350;27;45454;-78
2021/05/30 21:42:27;;;;;;;;;2.75;2.75;;;;;22.46;44.61;101882.59;5106893;27;45349;-77
2021/05/30 21:44:52;;;;;;;;;4.00;4.00;;;;;22.52;44.79;101888.50;5106877;27;46104;-76
2021/05/30 21:47:17;;;;;;;;;4.00;3.00;;;;;22.57;44.78;101889.06;5115645;27;45493;-73
2021/05/30 21:51:05;;;;;;;;;3.75;3.75;;;;;22.53;40.27;101925.03;5112947;27;45975;-77
2021/05/30 21:53:30;;;;;;;;;6.00;5.75;;;;;22.31;40.16;101921.94;5096372;27;45499;-75
2021/05/30 21:55:56;;;;;;;;;5.00;5.00;;;;;22.10;40.22;101926.88;5096846;27;45244;-77
2021/05/30 21:58:21;;;;;;;;;4.75;4.00;;;;;21.87;40.26;101930.03;5096368;27;45392;-77
2021/05/30 22:00:46;;;;;;;;;8.25;6.50;;;;;21.67;40.14;101926.75;5094433;27;45438;-78
2021/05/30 22:03:15;;;;;;;;;5.00;4.50;;;;;21.50;40.59;101925.13;5094838;27;45470;-78
2021/05/30 22:05:45;;;;;;;;;7.00;6.25;;;;;21.33;41.07;101931.50;5091638;27;45537;-78
2021/05/30 22:08:11;;;;;;;;;5.75;4.00;;;;;21.17;40.70;101926.19;5096705;27;45455;-77
2021/05/30 22:10:37;;;;;;;;;5.00;4.00;;;;;21.03;41.24;101935.91;5095264;27;45988;-78
2021/05/30 22:13:02;;;;;;;;;6.25;6.00;;;;;20.92;41.14;101923.13;5095652;27;45371;-78
2021/05/30 22:15:33;;;;;;;;;5.50;5.50;;;;;20.78;41.29;101915.94;5092215;27;45465;-77
2021/05/30 22:20:43;;;;;;;;;5.00;5.00;;;;;20.60;41.74;101916.03;5089794;27;45354;-77
2021/05/30 22:23:09;;;;;;;;;4.50;4.50;;;;;20.53;41.82;101923.53;5083366;27;45333;-78
2021/05/30 22:25:34;;;;;;;;;5.00;5.00;;;;;20.46;41.74;101923.03;5096559;27;45372;-78
2021/05/30 22:28:00;;;;;;;;;6.75;5.25;;;;;20.40;41.95;101920.69;5096483;27;45498;-78
2021/05/30 22:30:26;;;;;;;;;5.00;5.00;;;;;20.34;42.16;101927.25;5093778;27;45426;-82
2021/05/30 22:32:51;;;;;;;;;4.50;3.50;;;;;20.30;42.07;101927.50;5095821;27;45277;-75
2021/05/30 22:35:16;;;;;;;;;6.00;6.00;;;;;20.24;42.29;101918.91;5085422;27;45217;-75
2021/05/30 22:37:42;;;;;;;;;6.00;5.00;;;;;20.20;42.52;101925.34;5108928;27;46203;-75
2021/05/30 22:40:08;;;;;;;;;5.00;5.00;;;;;20.17;41.97;101927.34;5094416;27;45905;-75
2021/05/30 22:42:33;;;;;;;;;5.00;5.00;;;;;20.12;41.89;101925.75;5089080;27;45397;-75
2021/05/30 22:44:58;;;;;;;;;6.25;5.00;;;;;20.08;42.78;101924.19;5096131;27;45496;-75
2021/05/30 22:47:24;;;;;;;;;7.25;6.00;;;;;20.07;42.63;101921.59;5096158;27;45265;-75
2021/05/30 22:49:49;;;;;;;;;5.75;5.75;;;;;20.02;42.47;101922.72;5094479;27;48338;-75
2021/05/30 22:52:14;;;;;;;;;4.00;4.00;;;;;19.99;42.50;101920.22;5096061;27;45187;-75
2021/05/30 22:54:40;;;;;;;;;5.25;5.25;;;;;19.98;42.51;101929.16;5095837;27;46130;-75
2021/05/30 22:57:05;;;;;;;;;7.00;5.25;;;;;19.96;42.76;101920.38;5096269;27;45304;-75
2021/05/30 22:59:31;;;;;;;;;5.00;5.00;;;;;19.96;42.56;101919.50;5095610;27;46287;-75
2021/05/30 23:01:56;;;;;;;;;4.50;4.00;;;;;19.94;42.81;101932.94;5084859;27;45282;-75
2021/05/30 23:04:22;;;;;;;;;5.50;5.50;;;;;19.93;42.54;101928.53;5082007;27;45332;-73
2021/05/30 23:06:47;;;;;;;;;7.00;7.00;;;;;19.93;42.81;101925.88;5082556;27;45297;-73
2021/05/30 23:09:12;;;;;;;;;6.00;6.00;;;;;19.92;43.07;101929.50;5081654;27;46079;-73
2021/05/30 23:11:38;;;;;;;;;4.75;4.75;;;;;19.90;42.86;101920.72;5082488;27;45394;-73
2021/05/30 23:14:04;;;;;;;;;8.00;6.25;;;;;19.88;42.85;101925.25;5082203;27;45350;-73
2021/05/30 23:16:34;;;;;;;;;7.75;6.75;;;;;19.86;43.26;101919.16;5081865;27;45256;-73
2021/05/30 23:18:59;;;;;;;;;8.50;6.25;;;;;19.84;43.44;101915.72;5082003;27;45312;-73
2021/05/30 23:21:25;;;;;;;;;5.50;5.50;;;;;19.82;43.16;101913.13;5082122;27;45225;-74
2021/05/30 23:23:50;;;;;;;;;5.75;5.75;;;;;19.78;43.46;101916.88;5082218;27;45306;-73
2021/05/30 23:26:16;;;;;;;;;7.50;6.50;;;;;19.77;43.58;101921.38;5078275;28;45324;-73
2021/05/30 23:28:41;;;;;;;;;7.25;7.00;;;;;19.77;43.64;101921.38;5080835;27;45445;-73
2021/05/30 23:31:07;;;;;;;;;8.50;5.75;;;;;19.76;43.56;101919.66;5081320;27;45611;-73
2021/05/30 23:33:33;;;;;;;;;6.00;6.00;;;;;19.74;43.56;101915.34;5081994;27;45266;-73
2021/05/30 23:35:58;;;;;;;;;6.00;4.75;;;;;19.74;43.20;101916.22;5081338;27;45508;-73
2021/05/30 23:38:24;;;;;;;;;6.75;6.00;;;;;19.73;43.02;101917.13;5081855;27;46234;-73
2021/05/30 23:40:49;;;;;;;;;5.50;5.50;;;;;19.71;43.62;101915.50;5080738;27;45308;-73
2021/05/30 23:43:15;;;;;;;;;7.00;4.50;;;;;19.70;43.32;101921.78;5081979;27;45282;-73
2021/05/30 23:45:40;;;;;;;;;7.00;7.00;;;;;19.67;43.29;101914.81;5081579;27;45490;-73
2021/05/30 23:48:05;;;;;;;;;4.75;4.75;;;;;19.64;43.03;101915.84;5081757;27;45224;-73
2021/05/30 23:50:31;;;;;;;;;5.75;5.75;;;;;19.61;43.22;101909.78;5081193;28;45497;-73
2021/05/30 23:52:56;;;;;;;;;7.75;6.75;;;;;19.58;43.48;101909.97;5081590;27;45194;-73
2021/05/30 23:55:25;;;;;;;;;7.25;6.00;;;;;19.58;43.32;101912.63;5081256;27;45399;-73
2021/05/30 23:57:50;;;;;;;;;6.75;6.75;;;;;19.56;43.21;101913.56;5081013;27;46598;-74
